createdAt,value
2022-11-18T21:23:38.679Z,998.68
2022-11-18T21:24:38.658Z,998.68
2022-11-18T21:25:38.660Z,998.68
2022-11-18T21:26:38.652Z,998.69
2022-11-18T21:27:38.653Z,998.72
2022-11-18T21:28:38.650Z,998.73
2022-11-18T21:29:38.659Z,998.77
2022-11-18T21:30:38.657Z,998.78
2022-11-18T21:31:38.661Z,998.75
2022-11-18T21:32:38.657Z,998.7
2022-11-18T21:33:38.661Z,998.71
2022-11-18T21:34:38.659Z,998.68
2022-11-18T21:35:38.659Z,998.68
2022-11-18T21:36:42.967Z,998.64
2022-11-18T21:37:38.665Z,998.66
2022-11-18T21:38:38.658Z,998.69
2022-11-18T21:39:38.684Z,998.65
2022-11-18T21:40:38.657Z,998.69
2022-11-18T21:41:38.675Z,998.73
2022-11-18T21:42:38.658Z,998.7
2022-11-18T21:44:38.664Z,998.75
2022-11-18T21:45:39.075Z,998.76
2022-11-18T21:46:38.834Z,998.71
2022-11-18T21:47:38.674Z,998.78
2022-11-18T21:48:38.692Z,998.77
2022-11-18T21:49:38.707Z,998.79
2022-11-18T21:50:38.667Z,998.83
2022-11-18T21:51:38.671Z,998.89
2022-11-18T21:52:38.678Z,998.87
2022-11-18T21:53:38.678Z,998.94
2022-11-18T21:54:38.676Z,998.9
2022-11-18T21:55:38.809Z,998.87
2022-11-18T21:56:38.672Z,998.94
2022-11-18T21:57:38.677Z,998.93
2022-11-18T21:58:38.674Z,998.95
2022-11-18T21:59:38.672Z,998.97
2022-11-18T22:00:38.686Z,998.96
2022-11-18T22:01:38.678Z,999.03
2022-11-18T22:02:38.683Z,999.04
2022-11-18T22:03:38.681Z,999.03
2022-11-18T22:04:38.675Z,999.04
2022-11-18T22:05:38.689Z,999.02
2022-11-18T22:06:38.672Z,999.02
2022-11-18T22:07:38.727Z,999.05
2022-11-18T22:08:38.675Z,999.08
2022-11-18T22:09:38.675Z,999.06
2022-11-18T22:10:38.685Z,999.09
2022-11-18T22:11:38.698Z,999.1
2022-11-18T22:12:38.686Z,999.08
2022-11-18T22:13:38.680Z,999.06
2022-11-18T22:14:38.702Z,999.07
2022-11-18T22:15:38.674Z,999.09
2022-11-18T22:16:38.692Z,999.09
2022-11-18T22:17:38.679Z,999.13
2022-11-18T22:18:38.686Z,999.1
2022-11-18T22:19:38.684Z,999.14
2022-11-18T22:20:38.912Z,999.11
2022-11-18T22:21:38.686Z,999.07
2022-11-18T22:22:38.693Z,999.12
2022-11-18T22:23:38.693Z,999.15
2022-11-18T22:24:38.699Z,999.16
2022-11-18T22:25:38.691Z,999.17
2022-11-18T22:26:38.699Z,999.15
2022-11-18T22:27:38.719Z,999.06
2022-11-18T22:28:38.700Z,999.05
2022-11-18T22:29:38.690Z,999
2022-11-18T22:30:38.688Z,999.01
2022-11-18T22:31:38.699Z,999.03
2022-11-18T22:32:38.696Z,999.05
2022-11-18T22:33:38.693Z,999.06
2022-11-18T22:34:38.692Z,999.1
2022-11-18T22:35:38.690Z,999.13
2022-11-18T22:36:38.699Z,999.12
2022-11-18T22:37:38.705Z,999.2
2022-11-18T22:38:38.693Z,999.17
2022-11-18T22:39:38.697Z,999.18
2022-11-18T22:40:38.706Z,999.25
2022-11-18T22:41:38.705Z,999.25
2022-11-18T22:42:38.708Z,999.27
2022-11-18T22:43:38.736Z,999.31
2022-11-18T22:44:38.699Z,999.36
2022-11-18T22:45:38.710Z,999.42
2022-11-18T22:46:38.707Z,999.43
2022-11-18T22:47:38.702Z,999.49
2022-11-18T22:48:38.721Z,999.49
2022-11-18T22:49:38.904Z,999.42
2022-11-18T22:50:38.699Z,999.43
2022-11-18T22:51:38.699Z,999.45
2022-11-18T22:52:38.708Z,999.48
2022-11-18T22:53:38.717Z,999.46
2022-11-18T22:54:39.995Z,999.5
2022-11-18T22:55:38.706Z,999.5
2022-11-18T22:56:38.704Z,999.44
2022-11-18T22:57:38.700Z,999.48
2022-11-18T22:58:38.710Z,999.48
2022-11-18T22:59:38.726Z,999.45
2022-11-18T23:00:38.714Z,999.5
2022-11-18T23:01:38.708Z,999.52
2022-11-18T23:02:38.708Z,999.53
2022-11-18T23:03:38.708Z,999.53
2022-11-18T23:04:38.735Z,999.51
2022-11-18T23:05:38.740Z,999.6
2022-11-18T23:06:38.714Z,999.55
2022-11-18T23:07:38.746Z,999.57
2022-11-18T23:08:38.790Z,999.54
2022-11-18T23:09:38.713Z,999.55
2022-11-18T23:10:38.712Z,999.59
2022-11-18T23:11:38.717Z,999.61
2022-11-18T23:12:40.464Z,999.65
2022-11-18T23:13:38.718Z,999.69
2022-11-18T23:14:38.712Z,999.73
2022-11-18T23:15:38.738Z,999.69
2022-11-18T23:16:38.716Z,999.75
2022-11-18T23:17:38.711Z,999.73
2022-11-18T23:18:38.722Z,999.74
2022-11-18T23:19:38.718Z,999.75
2022-11-18T23:20:38.709Z,999.78
2022-11-18T23:21:38.712Z,999.76
2022-11-18T23:22:39.316Z,999.78
2022-11-18T23:23:38.815Z,999.78
2022-11-18T23:24:38.724Z,999.8
2022-11-18T23:25:38.712Z,999.82
2022-11-18T23:26:38.725Z,999.84
2022-11-18T23:27:38.731Z,999.8
2022-11-18T23:28:38.723Z,999.86
2022-11-18T23:29:38.748Z,999.91
2022-11-18T23:30:38.719Z,999.9
2022-11-18T23:31:38.739Z,999.92
2022-11-18T23:32:38.724Z,999.91
2022-11-18T23:33:38.716Z,999.87
2022-11-18T23:34:38.725Z,999.88
2022-11-18T23:35:38.720Z,999.82
2022-11-18T23:36:38.715Z,999.83
2022-11-18T23:37:38.732Z,999.83
2022-11-18T23:38:38.735Z,999.84
2022-11-18T23:39:38.736Z,999.78
2022-11-18T23:40:38.716Z,999.84
2022-11-18T23:41:38.730Z,999.84
2022-11-18T23:42:38.728Z,999.85
2022-11-18T23:43:38.740Z,999.81
2022-11-18T23:44:38.719Z,999.84
2022-11-18T23:45:38.721Z,999.86
2022-11-18T23:46:38.726Z,999.88
2022-11-18T23:47:38.757Z,999.85
2022-11-18T23:48:38.716Z,999.89
2022-11-18T23:49:38.734Z,999.9
2022-11-18T23:50:39.458Z,999.84
